Time;durP1;ratioP1;P1;durP2;ratioP2;P2;SDS_P1;SDS_P2;PMS_P1;PMS_P2;Temp;Humidity;BMP_temperature;BMP_pressure;BME280_temperature;BME280_humidity;BME280_pressure;Samples;Min_cycle;Max_cycle;Signal;HPM_P1;HPM_P2
2021/12/16 00:01:57;;;;;;;8.30;5.75;;;12.10;98.20;;;;;;5108562;28;20040;-66
2021/12/16 00:29:19;;;;;;;11.68;7.35;;;12.10;98.70;;;;;;5108981;28;20043;-66
2021/12/16 00:31:57;;;;;;;11.02;6.32;;;12.10;98.30;;;;;;5109737;28;20054;-66
2021/12/16 00:34:26;;;;;;;9.60;6.03;;;12.00;98.10;;;;;;5107714;28;20130;-66
2021/12/16 00:36:53;;;;;;;12.65;7.07;;;12.10;97.90;;;;;;5108936;28;20047;-66
2021/12/16 00:39:31;;;;;;;10.82;6.50;;;12.10;96.90;;;;;;5109970;28;20043;-67
2021/12/16 00:42:06;;;;;;;9.35;6.53;;;12.10;97.60;;;;;;5091657;28;20101;-66
2021/12/16 00:47:24;;;;;;;11.73;6.88;;;12.10;97.90;;;;;;5108363;28;20079;-66
2021/12/16 00:49:50;;;;;;;11.70;6.65;;;12.10;97.70;;;;;;5107994;28;20055;-65
2021/12/16 00:55:25;;;;;;;9.63;6.65;;;12.00;98.00;;;;;;5109792;28;20085;-66
2021/12/16 00:57:52;;;;;;;10.35;6.18;;;12.00;97.70;;;;;;5087786;28;20157;-70
2021/12/16 01:00:20;;;;;;;9.60;6.57;;;12.00;97.70;;;;;;5085470;28;20051;-68
2021/12/16 01:03:07;;;;;;;14.85;7.13;;;12.00;98.90;;;;;;5062670;28;20052;-68
2021/12/16 01:49:27;;;;;;;9.20;5.93;;;12.00;97.60;;;;;;5111672;28;20047;-66
2021/12/16 01:52:05;;;;;;;9.38;5.72;;;12.00;97.90;;;;;;5111916;28;20094;-68
2021/12/16 01:57:16;;;;;;;7.25;5.50;;;12.00;98.00;;;;;;5093800;28;20126;-66
2021/12/16 01:59:46;;;;;;;6.82;5.43;;;11.90;98.00;;;;;;5098111;28;20126;-66
2021/12/16 02:08:19;;;;;;;6.72;5.35;;;12.00;99.10;;;;;;5112998;28;20551;-66
2021/12/16 02:10:57;;;;;;;8.88;4.97;;;11.90;99.30;;;;;;5109823;28;20098;-66
2021/12/16 02:37:45;;;;;;;6.72;4.85;;;11.80;99.90;;;;;;5109964;28;19926;-66
2021/12/16 02:40:12;;;;;;;10.65;5.57;;;11.80;99.90;;;;;;5111930;28;20356;-66
2021/12/16 02:42:59;;;;;;;7.20;4.72;;;11.80;99.20;;;;;;5092530;28;20153;-66
2021/12/16 02:51:04;;;;;;;8.57;5.43;;;11.80;99.60;;;;;;5106691;28;20069;-67
2021/12/16 02:53:31;;;;;;;8.77;5.47;;;11.80;99.30;;;;;;5110112;28;20471;-67
2021/12/16 02:55:58;;;;;;;9.52;5.32;;;11.80;99.80;;;;;;5107358;28;20126;-66
2021/12/16 02:58:25;;;;;;;9.50;5.90;;;11.80;99.30;;;;;;5107733;28;20566;-66
2021/12/16 03:01:10;;;;;;;9.43;4.78;;;11.80;99.30;;;;;;5110602;28;20043;-66
2021/12/16 03:03:38;;;;;;;9.30;4.78;;;11.80;99.60;;;;;;5108757;28;20096;-66
2021/12/16 03:06:07;;;;;;;8.60;4.82;;;11.80;99.20;;;;;;5093630;28;20040;-68
2021/12/16 03:08:35;;;;;;;6.25;5.13;;;11.80;98.70;;;;;;5092462;28;20491;-69
2021/12/16 03:11:09;;;;;;;8.40;5.70;;;11.80;99.80;;;;;;5111527;28;20571;-68
2021/12/16 03:13:59;;;;;;;8.73;5.32;;;11.80;98.50;;;;;;5105843;28;20044;-68
2021/12/16 03:19:17;;;;;;;7.72;5.40;;;11.80;99.90;;;;;;5109592;28;20051;-68
2021/12/16 03:21:52;;;;;;;9.45;5.38;;;11.80;99.70;;;;;;5109534;28;20058;-67
2021/12/16 03:25:10;;;;;;;7.15;4.90;;;11.80;98.50;;;;;;5111353;28;20048;-66
2021/12/16 03:27:33;;;;;;;9.18;5.28;;;11.80;98.10;;;;;;5104702;28;20044;-67
2021/12/16 03:33:07;;;;;;;7.10;5.93;;;11.80;98.60;;;;;;5110700;28;20043;-67
2021/12/16 03:35:40;;;;;;;7.00;4.80;;;11.80;99.90;;;;;;5098073;28;20138;-66
2021/12/16 03:38:09;;;;;;;9.90;5.90;;;11.80;99.20;;;;;;5110483;28;20046;-68
2021/12/16 03:40:37;;;;;;;6.32;4.57;;;11.80;99.90;;;;;;5092997;28;20513;-67
2021/12/16 03:43:09;;;;;;;6.35;4.15;;;11.80;99.80;;;;;;5110483;28;20043;-69
2021/12/16 03:49:17;;;;;;;6.13;4.25;;;11.80;98.60;;;;;;5095460;28;20554;-67
2021/12/16 03:51:56;;;;;;;6.57;4.60;;;11.70;99.40;;;;;;5073506;28;20051;-67
2021/12/16 03:54:25;;;;;;;8.68;4.90;;;11.70;99.60;;;;;;5066149;28;20812;-72
2021/12/16 03:56:53;;;;;;;10.50;4.78;;;11.70;99.60;;;;;;5109009;28;20075;-66
2021/12/16 03:59:23;;;;;;;7.13;4.60;;;11.70;99.90;;;;;;5108955;28;20047;-66
2021/12/16 04:01:50;;;;;;;8.18;4.47;;;11.70;98.30;;;;;;5109404;28;20051;-67
2021/12/16 04:04:17;;;;;;;7.88;5.03;;;11.70;98.30;;;;;;5109631;28;20079;-71
2021/12/16 04:06:44;;;;;;;7.20;4.65;;;11.70;97.70;;;;;;5110621;28;20134;-67
2021/12/16 04:09:12;;;;;;;7.40;4.95;;;11.70;98.00;;;;;;5110595;28;20453;-67
2021/12/16 04:11:43;;;;;;;6.63;4.53;;;11.70;99.60;;;;;;5109588;28;20050;-67
2021/12/16 04:14:13;;;;;;;7.45;5.25;;;11.70;99.90;;;;;;5083892;28;20048;-67
2021/12/16 04:16:45;;;;;;;7.10;5.10;;;11.70;99.10;;;;;;5101334;28;20069;-66
2021/12/16 04:19:17;;;;;;;7.72;5.03;;;11.70;98.90;;;;;;5092466;28;20455;-67
2021/12/16 04:21:47;;;;;;;7.47;4.60;;;11.70;98.90;;;;;;5110120;28;20051;-67
2021/12/16 04:24:14;;;;;;;8.52;5.43;;;11.70;99.00;;;;;;5092462;28;20467;-67
2021/12/16 04:26:43;;;;;;;9.57;5.40;;;11.70;99.90;;;;;;5109340;28;20127;-67
2021/12/16 04:29:10;;;;;;;5.88;4.72;;;11.60;99.70;;;;;;5091864;28;20051;-66
2021/12/16 04:31:37;;;;;;;7.47;5.22;;;11.70;99.40;;;;;;5110716;28;20383;-67
2021/12/16 04:34:05;;;;;;;5.80;4.68;;;11.70;99.90;;;;;;5090999;28;20051;-67
2021/12/16 04:36:32;;;;;;;5.97;4.50;;;11.70;99.60;;;;;;5108766;28;20119;-66
2021/12/16 04:38:59;;;;;;;7.57;4.55;;;11.60;99.60;;;;;;5110685;28;20051;-66
2021/12/16 04:41:31;;;;;;;7.63;5.32;;;11.60;99.90;;;;;;5109730;28;20044;-68
2021/12/16 04:43:58;;;;;;;6.32;4.70;;;11.60;99.90;;;;;;5116782;28;20051;-67
2021/12/16 04:46:27;;;;;;;6.07;5.03;;;11.60;99.90;;;;;;5110522;28;20050;-67
2021/12/16 04:48:55;;;;;;;5.38;4.63;;;11.60;99.90;;;;;;5107758;28;20036;-66
2021/12/16 04:51:24;;;;;;;9.63;5.63;;;11.60;99.90;;;;;;5092761;28;20103;-67
2021/12/16 04:53:50;;;;;;;6.38;4.57;;;11.60;99.90;;;;;;5088424;28;20059;-67
2021/12/16 04:56:18;;;;;;;6.70;5.07;;;11.60;99.90;;;;;;5108884;28;20517;-68
2021/12/16 04:58:48;;;;;;;6.30;4.97;;;11.60;99.90;;;;;;5109777;28;20071;-67
2021/12/16 05:01:16;;;;;;;7.97;5.40;;;11.60;99.90;;;;;;5109142;28;20055;-67
2021/12/16 05:03:43;;;;;;;6.07;4.45;;;11.60;99.90;;;;;;5091263;28;20470;-71
2021/12/16 05:06:10;;;;;;;9.85;5.25;;;11.60;99.30;;;;;;5088141;28;20146;-67
2021/12/16 05:08:38;;;;;;;7.20;4.97;;;11.60;99.90;;;;;;5111635;28;20047;-67
2021/12/16 05:11:07;;;;;;;7.05;5.25;;;11.60;99.90;;;;;;5114683;28;20062;-67
2021/12/16 05:13:35;;;;;;;8.43;4.85;;;11.60;99.90;;;;;;5112406;28;20039;-66
2021/12/16 05:16:04;;;;;;;7.70;4.70;;;11.60;99.90;;;;;;5112258;28;20086;-67
2021/12/16 05:18:34;;;;;;;7.90;4.67;;;11.60;99.90;;;;;;5113678;28;20406;-66
2021/12/16 05:21:04;;;;;;;7.13;4.70;;;11.60;99.90;;;;;;5112451;28;20462;-67
2021/12/16 05:26:19;;;;;;;9.32;4.90;;;11.60;99.90;;;;;;5113624;28;19923;-67
2021/12/16 05:28:53;;;;;;;8.07;5.43;;;11.60;99.90;;;;;;5113320;28;20062;-67
2021/12/16 05:31:21;;;;;;;7.55;5.10;;;11.50;99.90;;;;;;5095996;28;20085;-67
2021/12/16 05:33:49;;;;;;;6.45;4.68;;;11.50;99.90;;;;;;5111873;28;20036;-67
2021/12/16 05:36:16;;;;;;;10.75;5.03;;;11.50;99.50;;;;;;5111414;28;20051;-67
2021/12/16 05:38:43;;;;;;;8.52;5.20;;;11.50;99.90;;;;;;5090279;28;20062;-68
2021/12/16 05:41:11;;;;;;;7.88;5.47;;;11.50;99.90;;;;;;5085503;28;20127;-68
2021/12/16 05:43:38;;;;;;;7.00;5.70;;;11.50;99.90;;;;;;5112307;28;20044;-67
2021/12/16 05:46:06;;;;;;;8.15;4.97;;;11.50;99.90;;;;;;5111457;28;20066;-68
2021/12/16 05:48:35;;;;;;;6.85;5.22;;;11.40;99.90;;;;;;5109355;28;20406;-67
2021/12/16 05:51:09;;;;;;;9.93;5.38;;;11.50;99.90;;;;;;5111831;28;20057;-71
2021/12/16 05:53:36;;;;;;;7.63;5.32;;;11.50;99.30;;;;;;5112158;28;20051;-67
2021/12/16 05:56:04;;;;;;;7.90;5.95;;;11.40;99.90;;;;;;5110215;28;20046;-67
2021/12/16 05:58:33;;;;;;;6.85;4.97;;;11.40;99.90;;;;;;5122414;27;20062;-67
2021/12/16 06:01:03;;;;;;;6.35;5.07;;;11.40;99.90;;;;;;5109957;28;20122;-67
2021/12/16 06:03:30;;;;;;;9.48;5.53;;;11.40;99.90;;;;;;5077883;28;20047;-68
2021/12/16 06:05:57;;;;;;;7.93;5.53;;;11.40;99.90;;;;;;5090815;28;20071;-67
2021/12/16 06:08:24;;;;;;;7.95;5.35;;;11.40;99.20;;;;;;5112529;27;20091;-68
2021/12/16 06:13:30;;;;;;;6.03;5.32;;;11.40;99.90;;;;;;5093073;28;20128;-68
2021/12/16 06:29:21;;;;;;;7.07;5.15;;;11.40;99.00;;;;;;5110794;28;20035;-67
2021/12/16 06:31:49;;;;;;;8.82;5.57;;;11.40;99.30;;;;;;5094321;28;20375;-67
2021/12/16 06:34:16;;;;;;;6.13;5.50;;;11.40;99.90;;;;;;5109710;28;20075;-75
2021/12/16 06:36:42;;;;;;;9.77;5.65;;;11.40;99.80;;;;;;5093674;28;20051;-69
2021/12/16 06:39:09;;;;;;;9.20;5.95;;;11.40;99.40;;;;;;5112836;28;20130;-66
2021/12/16 06:41:37;;;;;;;592.03;367.10;;;11.40;99.50;;;;;;5111809;28;20047;-66
2021/12/16 06:44:13;;;;;;;236.80;188.23;;;11.40;99.90;;;;;;5108822;28;20475;-71
2021/12/16 06:46:45;;;;;;;41.92;33.38;;;11.40;99.90;;;;;;5108486;28;20047;-68
2021/12/16 06:49:15;;;;;;;18.85;13.15;;;11.50;99.90;;;;;;5110138;28;20057;-67
2021/12/16 06:54:24;;;;;;;10.45;6.65;;;11.40;99.90;;;;;;5108065;28;20053;-69
2021/12/16 06:57:21;;;;;;;8.65;6.20;;;11.40;99.90;;;;;;5090081;28;20055;-66
2021/12/16 06:59:47;;;;;;;8.20;6.13;;;11.40;99.90;;;;;;5099194;28;20052;-67
2021/12/16 07:05:11;;;;;;;31.35;24.30;;;11.40;99.90;;;;;;5109966;28;20043;-67
2021/12/16 07:07:38;;;;;;;89.10;65.55;;;11.40;99.90;;;;;;5106611;28;20171;-61
2021/12/16 07:10:07;;;;;;;67.35;46.60;;;11.50;99.90;;;;;;5101177;28;20045;-66
2021/12/16 07:12:36;;;;;;;65.20;46.40;;;11.50;99.90;;;;;;5098927;28;20083;-67
2021/12/16 07:15:05;;;;;;;23.80;15.68;;;11.50;98.50;;;;;;5089825;28;20545;-67
2021/12/16 07:17:35;;;;;;;19.05;12.45;;;11.40;99.90;;;;;;5091877;28;20048;-69
2021/12/16 07:20:03;;;;;;;12.20;9.73;;;11.40;99.90;;;;;;5103403;28;20040;-67
2021/12/16 07:22:30;;;;;;;10.02;7.03;;;11.50;99.90;;;;;;5109337;28;20500;-67
2021/12/16 07:24:57;;;;;;;14.23;8.27;;;11.50;99.90;;;;;;5111186;28;20062;-69
2021/12/16 07:27:24;;;;;;;12.30;7.40;;;11.50;99.90;;;;;;5080991;28;20062;-70
2021/12/16 07:29:51;;;;;;;10.32;6.05;;;11.50;99.90;;;;;;5092160;28;20058;-69
2021/12/16 07:32:18;;;;;;;11.40;6.15;;;11.40;99.90;;;;;;5099388;28;20055;-69
2021/12/16 07:34:45;;;;;;;9.38;6.45;;;11.50;99.90;;;;;;5099069;28;20036;-69
2021/12/16 07:37:12;;;;;;;11.23;6.63;;;11.40;99.90;;;;;;5100278;28;20082;-75
2021/12/16 07:39:41;;;;;;;8.18;6.40;;;11.40;99.90;;;;;;5106016;28;20053;-74
2021/12/16 07:42:11;;;;;;;7.55;5.97;;;11.40;99.90;;;;;;5103881;28;20043;-73
2021/12/16 07:44:38;;;;;;;12.50;6.60;;;11.40;99.90;;;;;;5087283;28;20062;-68
2021/12/16 07:47:08;;;;;;;10.85;6.45;;;11.40;99.80;;;;;;5079206;28;20349;-69
2021/12/16 07:49:39;;;;;;;10.52;7.28;;;11.40;99.90;;;;;;5097308;28;20071;-67
2021/12/16 07:52:11;;;;;;;9.95;6.22;;;11.40;99.90;;;;;;5105753;28;20071;-67
2021/12/16 07:54:38;;;;;;;11.38;6.95;;;11.40;99.90;;;;;;5090660;28;20126;-68
2021/12/16 07:57:05;;;;;;;8.82;6.13;;;11.40;99.20;;;;;;5105526;28;20047;-66
2021/12/16 07:59:33;;;;;;;8.18;6.35;;;11.40;99.70;;;;;;5083712;28;20052;-66
2021/12/16 08:02:00;;;;;;;8.13;5.85;;;11.40;99.90;;;;;;5085375;28;20047;-68
2021/12/16 08:04:29;;;;;;;7.95;6.13;;;11.40;99.30;;;;;;5069782;28;20476;-67
2021/12/16 08:07:04;;;;;;;9.07;6.65;;;11.40;99.90;;;;;;5097901;28;20101;-67
2021/12/16 08:09:32;;;;;;;8.55;6.60;;;11.40;99.90;;;;;;5108185;28;20163;-68
2021/12/16 08:11:59;;;;;;;8.85;6.47;;;11.40;99.20;;;;;;5090911;28;20138;-66
2021/12/16 08:14:26;;;;;;;8.45;7.07;;;11.40;99.30;;;;;;5083869;28;20048;-67
2021/12/16 08:16:53;;;;;;;10.55;7.25;;;11.40;99.90;;;;;;5107078;28;20134;-68
2021/12/16 08:19:20;;;;;;;9.35;6.35;;;11.40;98.30;;;;;;5102075;28;20043;-66
2021/12/16 08:21:47;;;;;;;8.73;6.00;;;11.50;99.40;;;;;;5105166;28;20553;-66
2021/12/16 08:24:15;;;;;;;11.13;6.78;;;11.50;99.30;;;;;;5105978;28;20558;-67
2021/12/16 08:26:42;;;;;;;11.18;6.93;;;11.50;99.40;;;;;;5077737;28;20471;-65
2021/12/16 08:29:09;;;;;;;10.23;5.93;;;11.40;99.10;;;;;;5105111;28;20343;-67
2021/12/16 08:31:37;;;;;;;8.77;6.30;;;11.50;99.90;;;;;;5105280;28;20047;-66
2021/12/16 08:34:05;;;;;;;9.75;6.90;;;11.50;99.90;;;;;;5101318;28;20051;-68
2021/12/16 08:36:33;;;;;;;11.00;6.53;;;11.50;99.70;;;;;;5106734;28;20051;-68
2021/12/16 08:39:00;;;;;;;10.98;7.40;;;11.50;99.30;;;;;;5119279;28;20407;-69
2021/12/16 08:41:33;;;;;;;9.50;6.13;;;11.50;99.20;;;;;;5106136;28;20050;-70
2021/12/16 08:44:00;;;;;;;98.22;73.25;;;11.50;98.80;;;;;;5112159;28;20084;-69
2021/12/16 08:46:30;;;;;;;603.30;457.92;;;11.50;99.90;;;;;;5068549;28;20066;-67
2021/12/16 08:48:57;;;;;;;219.35;169.85;;;11.60;99.90;;;;;;5089375;28;20665;-66
2021/12/16 08:51:29;;;;;;;61.33;44.22;;;11.60;99.70;;;;;;5085896;28;20384;-65
2021/12/16 08:53:56;;;;;;;31.30;21.88;;;11.50;98.30;;;;;;5107759;28;20074;-71
2021/12/16 08:56:25;;;;;;;18.92;11.60;;;11.60;98.70;;;;;;5107541;28;20478;-65
2021/12/16 08:58:53;;;;;;;14.95;9.23;;;11.60;98.40;;;;;;5111729;28;20040;-64
2021/12/16 09:01:23;;;;;;;18.17;8.07;;;11.50;98.80;;;;;;5094245;28;20580;-68
2021/12/16 09:03:50;;;;;;;11.02;7.70;;;11.60;99.10;;;;;;5095320;28;20131;-66
2021/12/16 09:06:18;;;;;;;14.10;7.78;;;11.60;99.90;;;;;;5093081;28;20048;-64
2021/12/16 09:08:45;;;;;;;11.88;7.80;;;11.60;99.90;;;;;;5084800;28;20471;-66
2021/12/16 09:11:18;;;;;;;12.38;6.88;;;11.60;99.90;;;;;;5095804;28;20135;-66
2021/12/16 09:13:45;;;;;;;13.70;7.38;;;11.60;99.90;;;;;;5097493;28;20080;-69
2021/12/16 09:16:14;;;;;;;14.43;7.45;;;11.60;99.90;;;;;;5112426;28;20127;-68
2021/12/16 09:18:41;;;;;;;11.70;7.25;;;11.60;99.90;;;;;;5102557;28;20052;-69
2021/12/16 09:21:11;;;;;;;9.93;7.63;;;11.60;99.90;;;;;;5107261;28;20100;-68
2021/12/16 09:23:42;;;;;;;11.25;7.45;;;11.60;99.90;;;;;;5112216;28;20392;-71
2021/12/16 09:26:09;;;;;;;13.88;10.32;;;11.60;99.90;;;;;;5095667;28;20062;-69
2021/12/16 09:28:36;;;;;;;12.38;9.25;;;11.60;99.90;;;;;;5112145;28;20046;-69
2021/12/16 09:31:04;;;;;;;11.23;7.57;;;11.60;99.90;;;;;;5111097;28;20094;-69
2021/12/16 09:33:31;;;;;;;9.18;6.82;;;11.60;99.90;;;;;;5091198;28;20487;-69
2021/12/16 09:35:59;;;;;;;13.85;7.22;;;11.60;99.90;;;;;;5109114;28;20511;-69
2021/12/16 09:38:26;;;;;;;13.80;7.88;;;11.60;99.50;;;;;;5095249;28;20055;-68
2021/12/16 09:40:54;;;;;;;13.43;8.18;;;11.60;99.90;;;;;;5107694;28;20078;-69
2021/12/16 09:43:27;;;;;;;16.65;8.05;;;11.60;99.90;;;;;;5073839;28;20051;-69
2021/12/16 09:45:57;;;;;;;16.75;7.60;;;11.60;99.90;;;;;;5108672;28;20074;-69
2021/12/16 09:48:24;;;;;;;;;;;11.60;99.90;;;;;;5113746;28;20145;-69
2021/12/16 09:50:51;;;;;;;11.48;6.90;;;11.60;99.60;;;;;;5105419;28;19964;-67
2021/12/16 09:53:18;;;;;;;11.25;8.38;;;11.60;99.90;;;;;;5111938;28;20138;-68
2021/12/16 09:55:50;;;;;;;11.18;7.55;;;11.60;99.90;;;;;;5112387;28;20138;-68
2021/12/16 09:58:17;;;;;;;11.23;6.78;;;11.60;99.90;;;;;;5112369;28;20052;-68
2021/12/16 10:00:44;;;;;;;12.75;7.75;;;11.60;99.90;;;;;;5110966;28;20483;-68
2021/12/16 10:03:11;;;;;;;12.23;7.90;;;11.60;99.80;;;;;;5112680;28;20096;-68
2021/12/16 10:05:40;;;;;;;12.13;8.40;;;11.60;99.90;;;;;;5093025;28;20483;-69
2021/12/16 10:08:09;;;;;;;17.77;8.23;;;11.60;99.60;;;;;;5106991;28;20126;-69
2021/12/16 10:10:36;;;;;;;15.32;7.38;;;11.60;99.90;;;;;;5111013;28;20138;-68
2021/12/16 10:13:04;;;;;;;11.98;8.07;;;11.60;99.90;;;;;;5111461;28;20090;-68
2021/12/16 10:18:04;;;;;;;15.73;8.60;;;11.60;99.90;;;;;;5105411;28;20044;-68
2021/12/16 10:20:33;;;;;;;14.30;9.35;;;11.70;99.90;;;;;;5098271;28;20435;-68
2021/12/16 10:23:31;;;;;;;14.20;8.95;;;11.60;99.90;;;;;;5097427;28;20052;-70
2021/12/16 10:26:00;;;;;;;12.85;8.90;;;11.70;99.90;;;;;;5112148;28;20418;-69
2021/12/16 10:28:29;;;;;;;12.68;7.28;;;11.70;99.90;;;;;;5078661;28;20044;-69
2021/12/16 10:31:02;;;;;;;14.73;8.75;;;11.70;99.90;;;;;;5075408;28;20044;-70
2021/12/16 10:33:37;;;;;;;14.70;8.10;;;11.70;99.90;;;;;;5100788;28;20054;-70
2021/12/16 10:36:11;;;;;;;19.85;9.40;;;11.70;99.90;;;;;;5107044;28;20082;-70
2021/12/16 10:38:45;;;;;;;11.73;7.50;;;11.70;99.90;;;;;;5108515;28;20066;-67
2021/12/16 10:41:34;;;;;;;15.60;8.05;;;11.70;99.90;;;;;;5111801;28;20052;-67
2021/12/16 10:44:19;;;;;;;10.85;7.63;;;11.70;99.90;;;;;;5093772;28;20075;-68
2021/12/16 10:47:00;;;;;;;14.50;8.20;;;11.80;99.90;;;;;;5095267;28;20103;-68
2021/12/16 10:49:35;;;;;;;11.27;6.93;;;11.70;99.90;;;;;;5110970;28;20043;-68
2021/12/16 10:52:04;;;;;;;14.57;8.60;;;11.80;99.90;;;;;;5110590;28;20129;-67
2021/12/16 10:54:34;;;;;;;11.02;7.13;;;11.70;99.90;;;;;;5112353;28;20167;-69
2021/12/16 10:57:08;;;;;;;20.23;14.68;;;11.80;99.40;;;;;;5109380;28;20487;-68
2021/12/16 10:59:43;;;;;;;12.73;8.88;;;11.80;99.00;;;;;;5105676;28;20503;-68
2021/12/16 11:02:32;;;;;;;14.27;8.65;;;11.80;99.90;;;;;;5098984;28;20143;-68
2021/12/16 11:05:01;;;;;;;15.40;8.55;;;11.80;99.90;;;;;;5080428;28;20048;-70
2021/12/16 11:07:33;;;;;;;8.55;7.18;;;11.80;99.90;;;;;;5090862;28;20052;-68
2021/12/16 11:10:03;;;;;;;12.60;8.38;;;11.80;99.90;;;;;;5090259;28;20097;-69
2021/12/16 11:12:56;;;;;;;13.32;7.60;;;11.80;99.90;;;;;;5099204;28;20184;-68
2021/12/16 11:15:23;;;;;;;12.80;8.48;;;11.80;99.90;;;;;;5097518;28;20059;-68
2021/12/16 11:18:02;;;;;;;14.50;8.25;;;11.80;98.80;;;;;;5111872;28;20040;-68
2021/12/16 11:20:41;;;;;;;;;;;11.90;99.90;;;;;;5111108;28;20398;-68
2021/12/16 11:23:14;;;;;;;12.87;7.93;;;11.90;99.90;;;;;;5109752;28;20397;-72
2021/12/16 11:26:07;;;;;;;13.07;8.55;;;11.90;99.50;;;;;;5109476;28;20295;-69
2021/12/16 11:28:39;;;;;;;16.38;9.13;;;11.90;98.10;;;;;;5105536;27;20050;-68
2021/12/16 11:31:08;;;;;;;13.32;9.10;;;11.90;99.50;;;;;;5102452;28;20040;-71
2021/12/16 11:33:42;;;;;;;14.75;8.57;;;11.90;99.60;;;;;;5093972;28;20126;-67
2021/12/16 11:36:12;;;;;;;17.00;8.73;;;11.90;99.90;;;;;;5091855;28;20440;-69
2021/12/16 11:38:40;;;;;;;12.55;7.57;;;11.90;99.90;;;;;;5089954;28;20056;-75
2021/12/16 11:41:12;;;;;;;17.10;9.32;;;12.00;99.90;;;;;;5091999;28;20407;-68
2021/12/16 11:43:58;;;;;;;15.32;8.93;;;12.00;99.90;;;;;;5109480;28;20407;-69
2021/12/16 11:46:29;;;;;;;14.00;10.00;;;12.00;99.90;;;;;;5109274;28;20069;-69
2021/12/16 11:49:22;;;;;;;15.88;9.90;;;11.90;99.90;;;;;;5092963;28;20169;-69
2021/12/16 11:51:58;;;;;;;13.95;9.45;;;12.00;99.90;;;;;;5107919;28;20158;-70
2021/12/16 11:54:53;;;;;;;14.75;9.63;;;12.00;99.90;;;;;;5107939;28;20046;-69
2021/12/16 11:57:27;;;;;;;12.73;8.45;;;12.00;99.90;;;;;;5089421;28;20102;-69
2021/12/16 11:59:55;;;;;;;11.73;8.70;;;12.00;99.90;;;;;;5107982;28;20061;-70
2021/12/16 12:02:32;;;;;;;17.67;9.07;;;11.90;99.90;;;;;;5106519;28;20441;-71
2021/12/16 12:05:16;;;;;;;15.98;9.85;;;12.00;99.90;;;;;;5092984;28;20407;-77
2021/12/16 12:07:44;;;;;;;118.30;101.75;;;12.00;99.90;;;;;;5103379;28;20142;-71
2021/12/16 12:10:11;;;;;;;296.17;239.75;;;12.00;99.90;;;;;;5109338;28;20402;-68
2021/12/16 12:12:43;;;;;;;91.22;71.25;;;12.00;99.90;;;;;;5109298;28;20051;-68
2021/12/16 12:15:11;;;;;;;38.92;30.95;;;12.00;99.90;;;;;;5110917;28;20100;-69
2021/12/16 12:17:51;;;;;;;20.98;13.63;;;12.00;99.90;;;;;;5108505;28;20059;-68
2021/12/16 12:20:19;;;;;;;18.02;12.02;;;12.00;99.90;;;;;;5075808;28;20527;-71
2021/12/16 12:22:50;;;;;;;14.52;10.38;;;12.00;99.90;;;;;;5103991;28;20040;-65
2021/12/16 12:25:18;;;;;;;17.95;11.05;;;12.00;99.90;;;;;;5085797;28;20051;-64
2021/12/16 12:27:45;;;;;;;12.95;10.10;;;12.00;99.90;;;;;;5094350;28;20092;-67
2021/12/16 12:30:12;;;;;;;17.50;10.43;;;12.00;99.90;;;;;;5108836;28;20514;-65
2021/12/16 12:32:41;;;;;;;13.55;9.25;;;12.00;99.90;;;;;;5108318;28;20139;-67
2021/12/16 12:35:13;;;;;;;15.77;10.73;;;12.10;99.70;;;;;;5069119;28;20048;-67
2021/12/16 12:37:42;;;;;;;12.85;10.05;;;12.10;99.90;;;;;;5106145;28;20525;-66
2021/12/16 12:40:29;;;;;;;22.52;11.13;;;12.10;99.90;;;;;;5109018;28;20044;-66
2021/12/16 12:42:56;;;;;;;17.60;10.68;;;12.10;99.90;;;;;;5109996;28;20470;-63
2021/12/16 12:45:32;;;;;;;14.85;9.98;;;12.10;99.90;;;;;;5108418;28;20428;-62
2021/12/16 12:47:59;;;;;;;16.27;10.55;;;12.10;99.90;;;;;;5105719;28;20079;-66
2021/12/16 12:50:27;;;;;;;15.32;10.05;;;12.10;99.90;;;;;;5088280;28;20120;-63
2021/12/16 12:52:55;;;;;;;15.43;10.93;;;12.10;99.90;;;;;;5091442;28;20064;-64
2021/12/16 12:55:29;;;;;;;16.58;10.02;;;12.10;99.90;;;;;;5089034;28;20051;-64
2021/12/16 12:58:07;;;;;;;15.68;10.00;;;12.10;96.70;;;;;;5084408;28;20098;-64
2021/12/16 13:00:36;;;;;;;282.10;219.57;;;12.10;99.00;;;;;;5093950;28;20040;-62
2021/12/16 13:03:06;;;;;;;75.40;55.13;;;12.10;99.90;;;;;;5092608;28;20315;-63
2021/12/16 13:05:33;;;;;;;28.00;20.67;;;12.10;98.00;;;;;;5083071;28;20123;-63
2021/12/16 13:08:08;;;;;;;22.48;11.25;;;12.20;98.90;;;;;;5088681;28;20052;-64
2021/12/16 13:10:45;;;;;;;16.75;9.30;;;12.20;96.10;;;;;;5089109;28;20048;-63
2021/12/16 13:13:30;;;;;;;11.43;7.65;;;12.20;97.00;;;;;;5092415;28;20093;-65
2021/12/16 13:25:15;;;;;;;12.02;7.72;;;12.20;95.40;;;;;;5109533;28;20112;-64
2021/12/16 13:27:42;;;;;;;8.43;6.38;;;12.20;95.40;;;;;;5089350;28;20052;-66
2021/12/16 13:33:09;;;;;;;10.77;6.28;;;12.10;92.70;;;;;;5090512;28;20090;-64
2021/12/16 13:35:46;;;;;;;11.25;5.65;;;12.10;92.40;;;;;;5111850;28;20040;-66
2021/12/16 13:38:13;;;;;;;11.77;7.10;;;12.00;92.10;;;;;;5108814;28;20126;-66
2021/12/16 13:40:42;;;;;;;8.98;6.32;;;12.00;92.70;;;;;;5112339;28;20375;-66
2021/12/16 13:43:19;;;;;;;7.47;5.68;;;12.00;92.60;;;;;;5108683;28;20044;-65
2021/12/16 13:46:40;;;;;;;9.10;6.22;;;12.00;92.30;;;;;;5099065;28;20063;-66
2021/12/16 14:05:49;;;;;;;9.70;5.82;;;12.00;94.50;;;;;;5092529;28;20126;-70
2021/12/16 14:08:30;;;;;;;7.88;6.07;;;12.00;94.10;;;;;;5090132;28;21813;-69
2021/12/16 14:11:02;;;;;;;14.32;6.13;;;12.00;93.00;;;;;;5083622;28;20071;-72
2021/12/16 14:16:30;;;;;;;8.43;5.63;;;12.00;91.40;;;;;;5104806;28;20056;-66
2021/12/16 14:40:07;;;;;;;13.15;9.00;;;12.10;94.40;;;;;;5092069;28;20157;-68
2021/12/16 14:50:37;;;;;;;9.63;5.90;;;12.00;92.60;;;;;;5111430;28;20052;-70
2021/12/16 14:53:16;;;;;;;10.10;6.20;;;12.00;91.30;;;;;;5110887;28;20138;-66
2021/12/16 14:55:43;;;;;;;9.73;5.72;;;12.10;93.90;;;;;;5094959;28;20052;-68
2021/12/16 14:58:10;;;;;;;7.53;5.95;;;12.00;94.60;;;;;;5089907;28;20056;-68
2021/12/16 15:00:45;;;;;;;10.68;6.30;;;12.00;95.00;;;;;;5091097;28;20143;-69
2021/12/16 15:03:19;;;;;;;9.77;5.95;;;12.00;96.10;;;;;;5096780;28;20100;-69
2021/12/16 15:05:50;;;;;;;9.20;5.80;;;12.00;94.60;;;;;;5112512;28;20047;-68
2021/12/16 15:08:26;;;;;;;8.20;6.18;;;11.90;95.50;;;;;;5076769;28;20088;-66
2021/12/16 15:10:53;;;;;;;686.55;544.63;;;11.90;92.60;;;;;;5102862;28;20048;-66
2021/12/16 15:13:36;;;;;;;49.58;35.78;;;12.00;93.80;;;;;;5075668;28;20046;-65
2021/12/16 15:16:28;;;;;;;16.75;11.48;;;11.90;91.50;;;;;;5089629;28;20455;-65
2021/12/16 15:35:55;;;;;;;11.23;6.25;;;11.80;94.00;;;;;;5112130;28;20047;-68
2021/12/16 15:38:46;;;;;;;7.43;5.82;;;11.80;94.00;;;;;;5111358;28;20055;-66
2021/12/16 15:44:09;;;;;;;10.43;7.28;;;11.80;92.90;;;;;;5096437;28;20047;-66
2021/12/16 15:46:36;;;;;;;11.23;6.40;;;11.80;92.90;;;;;;5112190;28;20047;-65
2021/12/16 15:49:03;;;;;;;11.32;6.15;;;11.80;93.20;;;;;;5110581;28;20083;-66
2021/12/16 15:51:30;;;;;;;9.60;6.60;;;11.90;93.20;;;;;;5092621;28;20051;-69
2021/12/16 15:54:18;;;;;;;11.32;6.95;;;11.80;94.00;;;;;;5076658;28;20411;-70
2021/12/16 15:56:47;;;;;;;10.75;6.05;;;11.80;94.70;;;;;;5105818;28;20043;-68
2021/12/16 15:59:19;;;;;;;13.38;6.95;;;11.80;92.30;;;;;;5093786;28;20051;-66
2021/12/16 16:01:48;;;;;;;18.58;10.50;;;11.70;92.40;;;;;;5088442;28;20050;-63
2021/12/16 16:04:19;;;;;;;16.85;9.35;;;11.80;94.60;;;;;;5108513;28;20130;-64
2021/12/16 16:06:48;;;;;;;11.15;7.68;;;11.70;95.50;;;;;;5061218;28;20058;-63
2021/12/16 16:09:15;;;;;;;8.82;6.65;;;11.80;95.40;;;;;;5102882;28;20130;-65
2021/12/16 16:11:45;;;;;;;14.48;6.88;;;11.80;93.90;;;;;;5105979;28;20040;-66
2021/12/16 16:14:13;;;;;;;9.25;6.78;;;11.80;93.80;;;;;;5084479;28;20086;-68
2021/12/16 16:16:47;;;;;;;8.20;6.22;;;11.80;92.20;;;;;;5106798;28;20067;-67
2021/12/16 16:19:34;;;;;;;9.68;6.25;;;11.80;92.10;;;;;;5073214;28;20155;-67
2021/12/16 16:22:03;;;;;;;8.35;5.35;;;11.70;92.00;;;;;;5086904;28;20582;-68
2021/12/16 16:24:36;;;;;;;13.80;6.13;;;11.70;92.60;;;;;;5090392;28;20055;-66
2021/12/16 16:27:06;;;;;;;11.25;5.68;;;11.80;94.20;;;;;;5090161;28;20126;-71
2021/12/16 16:29:34;;;;;;;10.23;6.43;;;11.70;94.30;;;;;;5090953;28;20106;-76
2021/12/16 16:32:01;;;;;;;11.88;8.15;;;11.70;91.40;;;;;;5089170;28;20548;-72
2021/12/16 16:34:30;;;;;;;10.10;7.03;;;11.70;93.50;;;;;;5090461;28;20066;-70
2021/12/16 16:37:00;;;;;;;8.18;6.45;;;11.70;93.90;;;;;;5103605;28;20122;-74
2021/12/16 16:39:31;;;;;;;9.90;6.53;;;11.70;94.60;;;;;;5106383;28;20051;-69
2021/12/16 16:42:00;;;;;;;10.48;6.40;;;11.70;95.40;;;;;;5070042;28;20172;-72
2021/12/16 16:44:28;;;;;;;8.68;6.32;;;11.70;93.90;;;;;;5070623;28;20124;-72
2021/12/16 16:47:08;;;;;;;7.78;6.05;;;11.70;92.80;;;;;;5100201;28;20127;-71
2021/12/16 16:49:48;;;;;;;9.57;6.97;;;11.70;93.10;;;;;;5088572;28;20125;-68
2021/12/16 16:52:20;;;;;;;9.70;6.88;;;11.70;92.60;;;;;;5072458;28;20495;-73